createdAt,value
2018-10-09T00:00:50.256Z,68.20
2018-10-09T00:03:20.407Z,67.66
2018-10-09T00:05:50.361Z,67.83
2018-10-09T00:08:20.316Z,67.75
2018-10-09T00:10:53.306Z,67.93
2018-10-09T00:13:25.010Z,67.82
2018-10-09T00:15:57.842Z,68.41
2018-10-09T00:18:29.884Z,68.45
2018-10-09T00:21:00.793Z,67.90
2018-10-09T00:23:30.744Z,67.86
2018-10-09T00:26:03.724Z,67.79
2018-10-09T00:28:33.713Z,67.75
2018-10-09T00:31:08.230Z,67.50
2018-10-09T00:33:38.690Z,67.14
2018-10-09T00:36:08.806Z,67.71
2018-10-09T00:38:38.734Z,67.24
2018-10-09T00:41:12.954Z,67.16
2018-10-09T00:43:45.491Z,66.86
2018-10-09T00:46:18.194Z,67.09
2018-10-09T00:48:49.815Z,66.94
2018-10-09T00:51:22.733Z,66.91
2018-10-09T00:53:54.252Z,66.99
2018-10-09T00:56:25.723Z,67.80
2018-10-09T00:58:57.174Z,67.73
2018-10-09T01:01:27.218Z,67.57
2018-10-09T01:03:57.150Z,67.45
2018-10-09T01:06:27.107Z,67.44
2018-10-09T01:08:57.804Z,67.42
2018-10-09T01:11:29.453Z,67.68
2018-10-09T01:13:59.389Z,67.60
2018-10-09T01:16:34.887Z,67.60
2018-10-09T01:19:04.788Z,67.35
2018-10-09T01:21:35.813Z,67.41
2018-10-09T01:24:05.751Z,67.71
2018-10-09T01:26:35.699Z,67.33
2018-10-09T01:29:05.672Z,67.63
2018-10-09T01:31:35.588Z,67.40
2018-10-09T01:34:05.530Z,67.43
2018-10-09T01:36:35.476Z,67.44
2018-10-09T01:39:07.686Z,68.10
2018-10-09T01:41:39.000Z,67.83
2018-10-09T01:44:10.865Z,67.90
2018-10-09T01:46:44.829Z,67.75
2018-10-09T01:49:16.821Z,67.78
2018-10-09T01:51:56.255Z,67.91
2018-10-09T01:54:28.840Z,67.70
2018-10-09T01:57:02.335Z,68.02
2018-10-09T01:59:35.786Z,67.72
2018-10-09T02:02:09.315Z,67.55
2018-10-09T02:04:39.262Z,67.70
2018-10-09T02:07:10.102Z,67.69
2018-10-09T02:09:39.999Z,67.58
2018-10-09T02:12:10.827Z,67.56
2018-10-09T02:14:42.227Z,67.34
2018-10-09T02:17:13.078Z,67.39
2018-10-09T02:19:43.919Z,67.44
2018-10-09T02:22:13.737Z,67.23
2018-10-09T02:24:43.690Z,67.43
2018-10-09T02:27:16.445Z,67.17
2018-10-09T02:29:48.992Z,67.61
2018-10-09T02:32:21.766Z,67.18
2018-10-09T02:34:54.273Z,67.58
2018-10-09T02:37:26.036Z,67.34
2018-10-09T02:39:58.615Z,67.26
2018-10-09T02:42:31.020Z,67.33
2018-10-09T02:45:02.846Z,67.74
2018-10-09T02:47:36.414Z,67.58
2018-10-09T02:50:09.778Z,67.54
2018-10-09T02:52:41.920Z,67.67
2018-10-09T02:55:20.245Z,67.50
2018-10-09T02:57:53.911Z,67.56
2018-10-09T03:00:28.655Z,67.40
2018-10-09T03:03:04.912Z,67.36
2018-10-09T03:05:37.491Z,67.59
2018-10-09T03:08:09.283Z,67.63
2018-10-09T03:10:40.108Z,68.28
2018-10-09T03:13:13.955Z,68.11
2018-10-09T03:15:47.184Z,67.97
2018-10-09T03:18:18.461Z,67.82
2018-10-09T03:20:48.976Z,68.10
2018-10-09T03:23:19.111Z,68.11
2018-10-09T03:25:50.548Z,67.86
2018-10-09T03:28:21.429Z,68.50
2018-10-09T03:30:51.371Z,68.57
2018-10-09T03:33:24.687Z,68.56
2018-10-09T03:35:57.685Z,68.60
2018-10-09T03:38:28.194Z,68.45
2018-10-09T03:41:03.879Z,69.18
2018-10-09T03:43:35.316Z,68.90
2018-10-09T03:46:07.376Z,68.78
2018-10-09T03:48:40.241Z,69.34
2018-10-09T03:51:11.446Z,69.17
2018-10-09T03:53:45.490Z,69.62
2018-10-09T03:56:18.341Z,69.42
2018-10-09T03:58:51.183Z,70.34
2018-10-09T04:01:21.977Z,70.47
2018-10-09T04:03:54.458Z,70.12
2018-10-09T04:06:24.874Z,69.90
2018-10-09T04:08:58.204Z,69.63
2018-10-09T04:11:28.104Z,69.81
2018-10-09T04:14:00.377Z,70.48
2018-10-09T04:16:33.390Z,70.63
2018-10-09T04:19:05.491Z,69.93
2018-10-09T04:21:36.335Z,69.72
2018-10-09T04:24:07.127Z,69.59
2018-10-09T04:26:37.005Z,69.29
2018-10-09T04:29:06.963Z,69.23
2018-10-09T04:31:37.773Z,69.12
2018-10-09T04:34:09.182Z,69.31
2018-10-09T04:36:39.137Z,69.92
2018-10-09T04:39:12.310Z,70.15
2018-10-09T04:41:44.696Z,70.18
2018-10-09T04:44:22.017Z,69.94
2018-10-09T04:46:53.425Z,69.87
2018-10-09T04:49:24.551Z,69.78
2018-10-09T04:51:57.724Z,70.17
2018-10-09T04:54:29.578Z,70.13
2018-10-09T04:57:00.050Z,70.04
2018-10-09T04:59:31.455Z,69.54
2018-10-09T05:02:02.321Z,69.41
2018-10-09T05:04:32.187Z,69.41
2018-10-09T05:07:03.712Z,69.64
2018-10-09T05:09:33.642Z,69.59
2018-10-09T05:12:03.591Z,69.75
2018-10-09T05:14:34.725Z,69.62
2018-10-09T05:17:04.662Z,69.82
2018-10-09T05:19:34.608Z,69.38
2018-10-09T05:22:04.546Z,70.11
2018-10-09T05:24:34.555Z,69.83
2018-10-09T05:27:04.663Z,69.40
2018-10-09T05:29:34.674Z,69.79
2018-10-09T05:32:04.686Z,69.81
2018-10-09T05:34:34.655Z,69.86
2018-10-09T05:37:04.591Z,69.63
2018-10-09T05:39:34.537Z,69.96
2018-10-09T05:42:04.542Z,70.27
2018-10-09T05:44:34.526Z,70.64
2018-10-09T05:47:04.483Z,69.99
2018-10-09T05:49:34.425Z,70.07
2018-10-09T05:52:04.368Z,70.27
2018-10-09T05:54:34.312Z,70.19
2018-10-09T05:57:04.247Z,70.14
2018-10-09T05:59:34.253Z,70.34
2018-10-09T06:02:04.210Z,70.35
2018-10-09T06:04:34.152Z,70.04
2018-10-09T06:07:04.070Z,70.43
2018-10-09T06:09:33.958Z,70.62
2018-10-09T06:12:03.915Z,70.86
2018-10-09T06:14:33.927Z,71.11
2018-10-09T06:17:03.882Z,71.21
2018-10-09T06:19:33.800Z,71.50
2018-10-09T06:22:04.294Z,71.24
2018-10-09T06:24:34.235Z,71.40
2018-10-09T06:27:04.159Z,71.10
2018-10-09T06:29:34.090Z,70.73
2018-10-09T06:32:04.104Z,70.89
2018-10-09T06:34:34.083Z,70.79
2018-10-09T06:37:04.017Z,70.83
2018-10-09T06:39:33.979Z,70.47
2018-10-09T06:42:03.973Z,70.73
2018-10-09T06:44:33.904Z,70.62
2018-10-09T06:47:03.869Z,71.13
2018-10-09T06:49:33.827Z,71.47
2018-10-09T06:52:04.156Z,71.31
2018-10-09T06:54:34.115Z,71.42
2018-10-09T06:57:04.055Z,71.13
2018-10-09T06:59:34.918Z,71.11
2018-10-09T07:02:04.835Z,71.20
2018-10-09T07:04:34.803Z,70.79
2018-10-09T07:07:04.839Z,71.38
2018-10-09T07:09:34.798Z,71.88
2018-10-09T07:12:04.830Z,71.51
2018-10-09T07:14:34.783Z,71.57
2018-10-09T07:17:04.889Z,71.40
2018-10-09T07:19:34.977Z,71.07
2018-10-09T07:22:05.005Z,71.21
2018-10-09T07:24:34.987Z,71.46
2018-10-09T07:27:07.636Z,71.49
2018-10-09T07:29:37.653Z,71.20
2018-10-09T07:32:07.630Z,71.29
2018-10-09T07:34:37.569Z,71.00
2018-10-09T07:37:07.689Z,71.05
2018-10-09T07:39:37.677Z,70.62
2018-10-09T07:42:07.656Z,71.11
2018-10-09T07:44:37.661Z,70.80
2018-10-09T07:47:07.602Z,70.76
2018-10-09T07:49:37.597Z,70.70
2018-10-09T07:52:07.618Z,70.73
2018-10-09T07:54:37.607Z,71.14
2018-10-09T07:57:07.739Z,71.86
2018-10-09T07:59:37.743Z,71.63
2018-10-09T08:02:07.776Z,71.77
2018-10-09T08:04:37.797Z,72.05
2018-10-09T08:07:07.952Z,71.54
2018-10-09T08:09:37.886Z,71.67
2018-10-09T08:12:08.032Z,71.39
2018-10-09T08:14:38.021Z,71.00
2018-10-09T08:17:08.138Z,70.38
2018-10-09T08:19:38.062Z,69.46
2018-10-09T08:22:08.269Z,69.27
2018-10-09T08:24:38.196Z,68.22
2018-10-09T08:27:08.244Z,68.10
2018-10-09T08:29:38.165Z,67.11
2018-10-09T08:32:08.510Z,67.54
2018-10-09T08:34:38.626Z,67.18
2018-10-09T08:37:08.608Z,67.17
2018-10-09T08:39:38.584Z,67.08
2018-10-09T08:42:08.637Z,67.15
2018-10-09T08:44:38.623Z,66.91
2018-10-09T08:47:08.579Z,67.00
2018-10-09T08:49:38.422Z,67.49
2018-10-09T08:52:08.434Z,66.77
2018-10-09T08:54:38.355Z,66.71
2018-10-09T08:57:08.454Z,66.99
2018-10-09T08:59:38.494Z,66.81
2018-10-09T09:02:08.525Z,67.25
2018-10-09T09:04:38.481Z,66.01
2018-10-09T09:07:08.452Z,66.14
2018-10-09T09:09:38.423Z,65.77
2018-10-09T09:12:08.443Z,65.19
2018-10-09T09:14:38.437Z,65.11
2018-10-09T09:17:08.620Z,64.72
2018-10-09T09:19:38.548Z,64.10
2018-10-09T09:22:08.542Z,63.64
2018-10-09T09:24:38.531Z,63.75
2018-10-09T09:27:08.550Z,63.23
2018-10-09T09:29:38.496Z,64.10
2018-10-09T09:32:08.596Z,64.12
2018-10-09T09:34:38.594Z,63.63
2018-10-09T09:37:08.581Z,62.90
2018-10-09T09:39:38.521Z,62.98
2018-10-09T09:42:08.613Z,62.33
2018-10-09T09:44:38.604Z,62.73
2018-10-09T09:47:08.562Z,61.46
2018-10-09T09:49:38.510Z,61.40
2018-10-09T09:52:08.664Z,60.93
2018-10-09T09:54:38.494Z,60.65
2018-10-09T09:57:08.468Z,59.73
2018-10-09T09:59:38.361Z,59.86
2018-10-09T10:02:08.439Z,59.15
2018-10-09T10:04:38.431Z,59.82
2018-10-09T10:07:08.391Z,58.99
2018-10-09T10:09:38.395Z,59.15
2018-10-09T10:12:08.336Z,58.69
2018-10-09T10:14:38.309Z,58.08
2018-10-09T10:17:08.271Z,57.67
2018-10-09T10:19:38.454Z,57.61
2018-10-09T10:22:08.386Z,58.13
2018-10-09T10:24:38.428Z,56.20
2018-10-09T10:27:08.427Z,56.70
2018-10-09T10:29:38.421Z,56.61
2018-10-09T10:32:08.389Z,55.89
2018-10-09T10:34:38.331Z,55.94
2018-10-09T10:37:08.569Z,55.98
2018-10-09T10:39:38.523Z,55.21
2018-10-09T10:42:08.608Z,56.03
2018-10-09T10:44:38.664Z,55.89
2018-10-09T10:47:08.598Z,54.82
2018-10-09T10:49:38.550Z,54.61
2018-10-09T10:52:08.636Z,54.30
2018-10-09T10:54:38.608Z,54.01
2018-10-09T10:57:08.557Z,54.15
2018-10-09T10:59:38.498Z,53.15
2018-10-09T11:02:08.791Z,52.43
2018-10-09T11:04:38.799Z,52.81
2018-10-09T11:07:08.832Z,51.75
2018-10-09T11:09:38.848Z,52.02
2018-10-09T11:12:08.842Z,52.76
2018-10-09T11:14:38.884Z,50.91
2018-10-09T11:17:08.854Z,51.33
2018-10-09T11:19:38.788Z,49.99
2018-10-09T11:22:08.945Z,49.53
2018-10-09T11:24:40.297Z,49.95
2018-10-09T11:27:15.392Z,50.53
2018-10-09T11:29:49.705Z,51.41
2018-10-09T11:32:20.352Z,50.06
2018-10-09T11:34:50.875Z,50.43
2018-10-09T11:37:22.834Z,50.08
2018-10-09T11:39:57.004Z,49.85
2018-10-09T11:42:26.966Z,49.56
2018-10-09T11:44:58.257Z,50.54
2018-10-09T11:47:28.904Z,50.46
2018-10-09T11:50:01.559Z,49.92
2018-10-09T11:52:32.868Z,50.41
2018-10-09T11:55:02.876Z,50.02
2018-10-09T11:57:33.158Z,50.62
2018-10-09T12:00:06.613Z,50.10
2018-10-09T12:02:40.951Z,50.01
2018-10-09T12:05:16.041Z,49.67
2018-10-09T12:07:48.439Z,51.14
2018-10-09T12:10:19.933Z,49.17
2018-10-09T12:12:53.167Z,49.22
2018-10-09T12:15:25.321Z,48.40
2018-10-09T12:17:59.741Z,49.39
2018-10-09T12:20:29.755Z,48.29
2018-10-09T12:23:02.468Z,47.08
2018-10-09T12:25:33.758Z,48.35
2018-10-09T12:28:06.149Z,46.92
2018-10-09T12:30:38.597Z,48.58
2018-10-09T12:33:08.768Z,47.61
2018-10-09T12:35:40.129Z,48.17
2018-10-09T12:38:11.982Z,47.11
2018-10-09T12:40:43.318Z,47.23
2018-10-09T12:43:14.582Z,46.53
2018-10-09T12:45:48.139Z,46.20
2018-10-09T12:48:18.132Z,45.57
2018-10-09T12:50:48.179Z,45.45
2018-10-09T12:53:19.526Z,46.17
2018-10-09T12:55:53.120Z,46.10
2018-10-09T12:58:25.703Z,46.43
2018-10-09T13:00:57.458Z,46.29
2018-10-09T13:03:30.517Z,45.62
2018-10-09T13:06:01.496Z,45.87
2018-10-09T13:08:32.799Z,44.99
2018-10-09T13:11:04.404Z,45.88
2018-10-09T13:13:36.329Z,45.60
2018-10-09T13:16:09.223Z,46.31
2018-10-09T13:18:39.177Z,46.98
2018-10-09T13:21:12.612Z,45.53
2018-10-09T13:23:43.688Z,46.16
2018-10-09T13:26:14.402Z,46.31
2018-10-09T13:28:45.580Z,46.16
2018-10-09T13:31:15.621Z,47.29
2018-10-09T13:33:46.146Z,46.41
2018-10-09T13:36:18.552Z,46.57
2018-10-09T13:38:50.838Z,46.14
2018-10-09T13:41:22.748Z,44.67
2018-10-09T13:43:53.775Z,45.95
2018-10-09T13:46:25.249Z,45.22
2018-10-09T13:48:57.305Z,44.34
2018-10-09T13:51:28.910Z,44.43
2018-10-09T13:54:03.193Z,44.73
2018-10-09T13:56:39.579Z,44.35
2018-10-09T13:59:10.125Z,43.50
2018-10-09T14:01:40.142Z,43.91
2018-10-09T14:04:10.143Z,43.20
2018-10-09T14:06:42.646Z,42.73
2018-10-09T14:09:13.070Z,43.57
2018-10-09T14:11:43.229Z,43.03
2018-10-09T14:14:13.212Z,43.02
2018-10-09T14:16:43.868Z,42.69
2018-10-09T14:19:13.907Z,42.94
2018-10-09T14:21:44.681Z,44.31
2018-10-09T14:24:14.910Z,42.59
2018-10-09T14:26:46.031Z,42.84
2018-10-09T14:29:18.873Z,42.01
2018-10-09T14:31:50.071Z,43.55
2018-10-09T14:34:21.747Z,43.86
2018-10-09T14:36:52.316Z,45.05
2018-10-09T14:39:23.102Z,42.91
2018-10-09T14:41:53.615Z,42.83
2018-10-09T14:44:23.644Z,42.47
2018-10-09T14:46:55.655Z,43.57
2018-10-09T14:49:25.607Z,44.98
2018-10-09T14:51:58.645Z,45.46
2018-10-09T14:54:28.679Z,46.29
2018-10-09T14:56:58.673Z,46.56
2018-10-09T14:59:28.685Z,48.28
2018-10-09T15:01:58.691Z,48.64
2018-10-09T15:04:28.707Z,47.99
2018-10-09T15:06:58.692Z,47.82
2018-10-09T15:09:28.724Z,49.32
2018-10-09T15:12:02.142Z,49.22
2018-10-09T15:14:32.171Z,47.36
2018-10-09T15:17:05.425Z,49.06
2018-10-09T15:19:35.799Z,48.54
2018-10-09T15:22:07.152Z,49.07
2018-10-09T15:24:39.388Z,49.55
2018-10-09T15:27:09.386Z,49.58
2018-10-09T15:29:42.547Z,50.76
2018-10-09T15:32:16.141Z,51.13
2018-10-09T15:34:47.583Z,50.67
2018-10-09T15:37:18.440Z,50.75
2018-10-09T15:39:51.588Z,51.45
2018-10-09T15:42:21.534Z,50.75
2018-10-09T15:44:56.890Z,50.65
2018-10-09T15:47:29.109Z,50.79
2018-10-09T15:50:00.647Z,51.73
2018-10-09T15:52:31.364Z,51.64
2018-10-09T15:55:01.344Z,51.96
2018-10-09T15:57:31.597Z,52.09
2018-10-09T16:00:02.456Z,52.22
2018-10-09T16:02:32.483Z,52.97
2018-10-09T16:05:02.486Z,53.37
2018-10-09T16:07:32.498Z,53.62
2018-10-09T16:10:05.001Z,54.15
2018-10-09T16:12:35.354Z,54.88
2018-10-09T16:15:05.345Z,54.80
2018-10-09T16:17:35.347Z,54.63
2018-10-09T16:20:06.748Z,55.09
2018-10-09T16:22:36.810Z,55.18
2018-10-09T16:25:06.816Z,55.74
2018-10-09T16:27:36.842Z,55.97
2018-10-09T16:30:06.932Z,55.70
2018-10-09T16:32:37.014Z,56.68
2018-10-09T16:35:07.046Z,57.23
2018-10-09T16:37:37.039Z,57.52
2018-10-09T16:40:07.105Z,57.75
2018-10-09T16:42:37.053Z,57.35
2018-10-09T16:45:07.095Z,58.29
2018-10-09T16:47:37.094Z,58.20
2018-10-09T16:50:08.464Z,58.35
2018-10-09T16:52:38.499Z,58.74
2018-10-09T16:55:10.414Z,59.37
2018-10-09T16:57:40.560Z,58.67
2018-10-09T17:00:12.868Z,59.45
2018-10-09T17:02:44.414Z,59.61
2018-10-09T17:05:17.923Z,59.67
2018-10-09T17:07:56.545Z,60.12
2018-10-09T17:10:28.224Z,59.87
2018-10-09T17:13:02.728Z,60.66
2018-10-09T17:15:32.751Z,60.19
2018-10-09T17:18:03.547Z,61.42
2018-10-09T17:20:35.586Z,60.90
2018-10-09T17:23:06.332Z,61.30
2018-10-09T17:25:37.049Z,61.06
2018-10-09T17:28:08.535Z,61.39
2018-10-09T17:30:38.585Z,61.32
2018-10-09T17:33:12.274Z,61.84
2018-10-09T17:35:46.074Z,62.58
2018-10-09T17:38:20.407Z,62.47
2018-10-09T17:40:51.399Z,62.47
2018-10-09T17:43:21.385Z,62.75
2018-10-09T17:45:51.408Z,62.88
2018-10-09T17:48:21.711Z,62.49
2018-10-09T17:50:51.654Z,63.18
2018-10-09T17:53:21.799Z,62.66
2018-10-09T17:55:52.763Z,63.18
2018-10-09T17:58:23.259Z,63.33
2018-10-09T18:00:53.228Z,63.73
2018-10-09T18:03:23.247Z,63.52
2018-10-09T18:05:54.637Z,64.69
2018-10-09T18:08:25.229Z,64.85
2018-10-09T18:10:55.160Z,65.03
2018-10-09T18:13:25.139Z,65.57
2018-10-09T18:15:55.175Z,64.89
2018-10-09T18:18:25.219Z,65.37
2018-10-09T18:20:55.208Z,64.93
2018-10-09T18:23:25.287Z,65.76
2018-10-09T18:25:55.373Z,65.25
2018-10-09T18:28:25.438Z,66.02
2018-10-09T18:30:55.502Z,65.83
2018-10-09T18:33:25.663Z,65.72
2018-10-09T18:35:55.628Z,66.00
2018-10-09T18:38:25.688Z,66.50
2018-10-09T18:40:55.766Z,67.02
2018-10-09T18:43:25.723Z,67.01
2018-10-09T18:45:55.822Z,67.82
2018-10-09T18:48:25.839Z,67.49
2018-10-09T18:50:55.848Z,66.59
2018-10-09T18:53:25.833Z,66.87
2018-10-09T18:55:55.921Z,67.55
2018-10-09T18:58:25.983Z,68.10
2018-10-09T19:00:55.964Z,68.31
2018-10-09T19:03:25.971Z,67.45
2018-10-09T19:05:56.023Z,67.67
2018-10-09T19:08:26.076Z,68.02
2018-10-09T19:10:56.250Z,67.98
2018-10-09T19:13:26.239Z,68.30
2018-10-09T19:15:56.296Z,67.33
2018-10-09T19:18:26.374Z,67.81
2018-10-09T19:20:56.311Z,68.30
2018-10-09T19:23:26.350Z,68.13
2018-10-09T19:25:56.289Z,67.68
2018-10-09T19:28:26.396Z,68.37
2018-10-09T19:30:56.409Z,68.38
2018-10-09T19:33:26.483Z,68.09
2018-10-09T19:35:56.465Z,68.22
2018-10-09T19:38:26.561Z,68.63
2018-10-09T19:40:57.696Z,68.16
2018-10-09T19:43:28.063Z,68.65
2018-10-09T19:45:58.498Z,68.59
2018-10-09T19:48:28.734Z,69.03
2018-10-09T19:50:58.930Z,69.48
2018-10-09T19:53:28.935Z,69.15
2018-10-09T19:55:58.935Z,68.81
2018-10-09T19:58:28.924Z,68.83
2018-10-09T20:00:59.008Z,68.58
2018-10-09T20:03:29.005Z,68.19
2018-10-09T20:05:59.976Z,69.42
2018-10-09T20:08:30.087Z,69.62
2018-10-09T20:11:00.222Z,68.53
2018-10-09T20:13:30.203Z,69.36
2018-10-09T20:16:00.178Z,69.17
2018-10-09T20:18:30.218Z,69.11
2018-10-09T20:21:00.155Z,69.09
2018-10-09T20:23:30.553Z,69.04
2018-10-09T20:26:01.025Z,69.85
2018-10-09T20:28:30.997Z,69.51
2018-10-09T20:31:01.408Z,69.72
2018-10-09T20:33:31.506Z,69.33
2018-10-09T20:36:01.483Z,69.34
2018-10-09T20:38:32.628Z,69.44
2018-10-09T20:41:02.577Z,68.89
2018-10-09T20:43:33.302Z,69.06
2018-10-09T20:46:03.905Z,68.94
2018-10-09T20:48:33.891Z,68.71
2018-10-09T20:51:04.528Z,69.23
2018-10-09T20:53:36.561Z,70.04
2018-10-09T20:56:06.507Z,69.53
2018-10-09T20:58:36.514Z,69.94
2018-10-09T21:01:06.472Z,69.59
2018-10-09T21:03:39.447Z,69.34
2018-10-09T21:06:09.508Z,69.12
2018-10-09T21:08:40.829Z,70.06
2018-10-09T21:11:10.893Z,69.81
2018-10-09T21:13:41.518Z,70.09
2018-10-09T21:16:11.495Z,69.51
2018-10-09T21:18:42.147Z,70.26
2018-10-09T21:21:12.232Z,70.12
2018-10-09T21:23:42.390Z,70.02
2018-10-09T21:26:12.358Z,70.30
2018-10-09T21:28:42.362Z,69.99
2018-10-09T21:31:12.343Z,70.54
2018-10-09T21:33:42.351Z,70.25
2018-10-09T21:36:12.364Z,69.96
2018-10-09T21:38:43.732Z,70.08
2018-10-09T21:41:13.725Z,70.27
2018-10-09T21:43:43.705Z,69.86
2018-10-09T21:46:14.259Z,70.15
2018-10-09T21:48:44.297Z,70.73
2018-10-09T21:51:14.291Z,70.90
2018-10-09T21:53:44.268Z,70.73
2018-10-09T21:56:14.208Z,70.42
2018-10-09T21:58:44.199Z,69.87
2018-10-09T22:01:14.182Z,69.97
2018-10-09T22:03:45.683Z,69.25
2018-10-09T22:06:16.225Z,69.70
2018-10-09T22:08:47.997Z,69.28
2018-10-09T22:11:23.270Z,69.55
2018-10-09T22:13:53.897Z,69.05
2018-10-09T22:16:24.053Z,70.09
2018-10-09T22:18:56.716Z,69.54
2018-10-09T22:21:28.061Z,70.23
2018-10-09T22:23:59.605Z,70.34
2018-10-09T22:26:29.567Z,70.31
2018-10-09T22:29:00.771Z,70.76
2018-10-09T22:31:30.738Z,70.68
2018-10-09T22:34:03.503Z,70.80
2018-10-09T22:36:36.441Z,70.55
2018-10-09T22:39:10.261Z,71.06
2018-10-09T22:41:49.637Z,70.96
2018-10-09T22:44:21.633Z,70.48
2018-10-09T22:47:04.923Z,70.53
2018-10-09T22:49:38.837Z,70.43
2018-10-09T22:52:13.572Z,70.49
2018-10-09T22:54:47.537Z,70.65
2018-10-09T22:57:19.571Z,71.66
2018-10-09T22:59:49.526Z,71.22
2018-10-09T23:02:20.247Z,71.61
2018-10-09T23:04:50.179Z,71.60
2018-10-09T23:07:20.105Z,71.96
2018-10-09T23:09:50.079Z,71.74
2018-10-09T23:12:20.074Z,72.42
2018-10-09T23:14:50.739Z,71.70
2018-10-09T23:17:20.709Z,71.95
2018-10-09T23:19:51.336Z,72.13
2018-10-09T23:22:24.016Z,72.29
2018-10-09T23:24:56.871Z,72.01
2018-10-09T23:27:28.934Z,71.51
2018-10-09T23:30:00.390Z,71.76
2018-10-09T23:32:31.334Z,72.16
2018-10-09T23:35:01.314Z,72.03
2018-10-09T23:37:31.244Z,72.21
2018-10-09T23:40:01.907Z,71.67
2018-10-09T23:42:32.449Z,71.88
2018-10-09T23:45:02.388Z,71.64
2018-10-09T23:47:32.336Z,71.83
2018-10-09T23:50:02.279Z,71.67
2018-10-09T23:52:32.290Z,71.27
2018-10-09T23:55:03.127Z,71.37
2018-10-09T23:57:34.136Z,71.40
